KBIS

Bismarck Municipal Airport

Bismarck, North Dakota, USA
METAR KBIS 190252Z 00000KT 10SM CLR M03/M04 A2966 RMK AO2 SLP069 T10281044 56007
Observed Flight Rules
Jan-19 @ 02:52 UTC (57 minutes ago) Visual Flight Rules
Wind Visibility Clouds
Calm 10 miles
  • Clear skies
Temperatures Readings
Current -3°C / 27°F
Dewpoint -4°C / 25°F
Humidity 93%
Altimeter 29.66" Hg
Pressure 1006.9 hPa
Elevation 505
METAR KBIS 190252Z 00000KT 10SM CLR M03/M04 A2966 RMK AO2 SLP069 T10281044 56007
Observed Flight Rules
Jan-19 @ 02:52 UTC
(57 minutes ago)
VFR
Wind Visibility
Calm 10 miles
Clouds
  • Clear skies
Temperature Dewpoint
-3°C / 27°F -4°C / 25°F
Humidity Altimeter Pressure
93% 29.66" Hg 1006.9 hPa